Terminal Aerodrome Forecast
Issued by NWS

Home | Current Version | Previous Version | Text Only | Print | Product List | Glossary On
Versions: 1 2 3 4 5 6 7 8 9 10 11 12 13 14 15 16
000
FTUS44 KHGX 241723
TAFUTS
TAF
KUTS 241723Z 2418/2518 18010G20KT P6SM SCT250
     FM250000 18009KT P6SM SCT025
     FM250500 19008KT P6SM BKN015 BKN250
     FM250900 28006KT P6SM BKN015 BKN050 BKN250
     FM251500 32007KT P6SM SCT050 BKN250=

USA.gov is the U.S. government's official web portal to all federal, state and local government web resources and services.